Terminal Aerodrome Forecast
Issued by NWS

Home | Current Version | Previous Version | Text Only | Print | Product List | Glossary Off
Versions: 1 2 3 4 5 6 7 8 9 10 11 12 13 14 15

385
FTUS42 KMHX 250902 AAA
TAFISO
TAF AMD
KISO 250902Z 2509/2606 03005KT P6SM BKN017
     FM251400 04005KT P6SM BKN025
     FM251800 05008KT P6SM BKN035
      AMD LTD TO CLD VIS AND WIND=

USA.gov is the U.S. government's official web portal to all federal, state and local government web resources and services.